John Zardes

Chief Scout - San Diego Football Club
13 Jan 2028
Thursday
Process

Personality

Adaptability (12) Ambition (3) Controversy (10) Loyalty (6) Pressure (9) Professionalism (13) Sportsmanship (7) Temperament (8)

Profile

Coaching Style Democratic
License Continental C
Determination 6
Man Management 10
Motivating 11
Discipline 10
Job Satisfaction
100%
Fatigue
0%
Role Chief Scout
Wage 39.4K p/w
Contract 14.03.2028

Performance

Behaviour Good
Training Effectiveness
38%
Player Development
20%
Injury Prevention
60%
Tactical Implementation
20%

Recent Events

Contract negotiation started now
Assessed a player now
Attended a recruitment meeting now
Attended a recruitment meeting now
Contract negotiation started now
Contract negotiation started 7d ago
Contract negotiation started 7d ago
Assessed a player 7d ago

Currently Monitoring

119
Player Club Status Ability Confidence Watched Last Observed Latest Vote
Steven Alzate Atlanta United FC Active 135 / 124 40% 2 11.01.2028 -
Augusto Schott Talleres Active 115 / 128 40% 1 11.01.2028 -
Samuel Velásquez Atletico Nacional Active 127 / 130 40% 1 10.01.2028 -
Franco Díaz Temperley Active 119 / 111 40% 1 10.01.2028 -
Jake O'Brien Bolton Wanderers Active 153 / 144 40% 3 09.01.2028 -
Lamare Bogarde Burton Albion Active 133 / 126 40% 1 09.01.2028 -
Alexandro Bernabei Internacional Active 134 / 137 40% 1 07.01.2028 -
Aidan Morris Middlesbrough Active 135 / 136 40% 1 06.01.2028 -
Kobbie Mainoo Norwich City Active 158 / 151 40% 1 06.01.2028 -
Adrián Sánchez Junior Active 129 / 115 40% 1 05.01.2028 -
Mateo Castillo Real Cartagena Active 133 / 122 40% 1 05.01.2028 -
André Wolverhampton Active 146 / 158 40% 1 04.01.2028 -
Lucas Piton Vasco da Gama Active 137 / 125 40% 1 03.01.2028 -
Jacob Greaves Ipswich Town Active 140 / 133 40% 1 01.01.2028 -
Kristoffer Lund Birmingham Active 128 / 139 40% 1 31.12.2027 -
Gastón Benedetti Estudiantes Active 123 / 120 40% 1 31.12.2027 -
Ronan Kpakio Brentford Active 110 / 130 40% 1 27.07.2027 -
Gonçalo Oliveira Benfica Active 114 / 113 40% 1 27.07.2027 -
Martim Cunha Porto Active 101 / 109 40% 1 19.07.2027 -
Samuel Lucero Defensa y Justicia Lost 121 / 123 40% 1 19.07.2027 -
Hosea Michael Remo Stars Active 85 / 85 40% 1 13.07.2027 -
Joel McGregor Swindon Town Lost 86 / 107 40% 1 13.07.2027 -
Godwin Oham Warri Wolves Active 80 / 92 40% 1 07.07.2027 -
Edwin Asamoah Berekum Chelsea Active 77 / 86 40% 1 07.07.2027 -
Riley Owen Wycombe Wanderers Active 101 / 105 40% 2 12.04.2027 -
Juanlu Bournemouth Active 147 / 141 40% 1 07.04.2027 -
Niko Markovic DC United Active 93 / 114 55% 1 05.04.2027 -
Bali Mumba Huddersfield Town Active 125 / 127 40% 1 23.03.2027 -
Ethan Galbraith Swansea City Active 127 / 142 40% 1 23.03.2027 -
Toti Wolverhampton Active 140 / 128 40% 1 08.03.2027 -
Oscar Schwartau Norwich City Active 123 / 140 40% 2 14.02.2027 -
Alfie Doughty Millwall Active 139 / 121 40% 1 13.02.2027 -
Neco Williams Nottingham Forest Active 132 / 134 40% 1 13.02.2027 -
Bosun Lawal Stoke City Active 120 / 138 40% 1 11.02.2027 -
Ross McCrorie Bristol City Active 125 / 132 40% 1 11.02.2027 -
Callum Doyle Wrexham Active 125 / 131 40% 2 10.02.2027 -
Lewis Bate Stockport County Active 118 / 127 40% 1 09.02.2027 -
Max Arfsten Middlesbrough Active 117 / 132 40% 1 07.02.2027 -
Jorrel Hato Chelsea Active 154 / 152 40% 7 06.02.2027 -
Harry Pickering Blackburn Rovers Active 129 / 124 40% 1 06.02.2027 -
Tristan Crama Millwall Active 127 / 126 40% 1 06.02.2027 -
Welington Southampton Active 122 / 138 40% 1 05.02.2027 -
Jordan Beyer Burnley Active 127 / 143 40% 1 03.02.2027 -
Gustavo Hamer Sheffield United Active 133 / 143 40% 1 02.02.2027 -
Ryan Wintle Milton Keynes Dons Active 107 / 108 40% 1 02.02.2027 -
Max Bird Birmingham Active 126 / 119 40% 1 01.02.2027 Needs More Info
Gorka Gorosabel Real Sociedad Active 111 / 116 40% 2 31.01.2027 -
Chemsdine Talbi Sunderland Active 133 / 146 40% 1 31.01.2027 -
Ishmael Addo Heart of Lions Active 83 / 95 40% 1 30.01.2027 -
Caleb Yirenkyi Coventry City Active 134 / 142 40% 1 30.01.2027 -
Asanele Bonani Chippa United Active 90 / 111 40% 3 27.01.2027 -
Daniel Awuni Aduana Stars Active 101 / 86 40% 7 24.01.2027 -
Othmane Maamma Watford Active 130 / 121 40% 2 23.01.2027 -
Nestory Irankunda Watford Active 113 / 123 40% 1 20.01.2027 -
Luther Lorch Free State Stars Active 75 / 93 40% 1 20.01.2027 -
Malick Fofana Sunderland Active 141 / 147 40% 3 18.01.2027 -
Lucas Bergvall Tottenham Active 145 / 159 40% 1 18.01.2027 -
Luke Baartman Bidvest Wits Active 85 / 113 40% 1 17.01.2027 -
Bazoumana Touré Newcastle United Active 131 / 131 40% 2 15.01.2027 -
Shea Lacey Millwall Active 130 / 129 40% 2 09.01.2027 -
Thomas Atiemo Wa All Stars Active 77 / 82 40% 2 08.01.2027 -
Bobby Clark Derby County Active 117 / 139 40% 1 08.01.2027 -
Christos Mouzakitis Hull City Active 130 / 136 40% 5 07.01.2027 -
Tudor Mendel-Idowu Colchester United Active 84 / 92 40% 1 05.01.2027 -
Nico O'Reilly Manchester City Active 150 / 168 40% 1 28.12.2026 -
Sidiki Chérif Coventry City Active 115 / 135 40% 4 23.12.2026 -
Zane Okoro Lincoln City Active 99 / 103 40% 5 22.12.2026 -
Ethan Mbappé LOSC Lille Active 136 / 146 40% 1 20.12.2026 -
George Paaku Hearts of Oak Active 66 / 95 40% 1 19.12.2026 -
Simphiwe Selepe Orlando Pirates Active 127 / 106 40% 1 19.12.2026 -
Jay Robinson Southampton Active 120 / 120 40% 1 17.12.2026 -
Monty Batlhabane Polokwane City Active 83 / 84 40% 3 13.12.2026 -
Benjamin Tsivanyo Aduana Stars Active 77 / 71 40% 2 13.12.2026 -
Alexei Dominguez Pachuca Active 114 / 103 40% 2 10.12.2026 -
Matías Fernández-Pardo Newcastle United Active 129 / 153 40% 2 10.12.2026 -
David Obou AFC Wimbledon Active 96 / 99 40% 1 08.12.2026 -
Abraham Paintsil Hasaacas Active 87 / 108 40% 1 05.12.2026 -
Reuell Walters Luton Town Active 105 / 107 40% 6 04.12.2026 -
Nicholas Ablido New Edubiase United Active 101 / 93 40% 1 04.12.2026 -
Dani Díaz Real Sociedad Active 120 / 114 40% 2 02.12.2026 -
Ronwen Khune Black Aces Active 95 / 102 40% 2 30.11.2026 -
Artem Slesar Zorya Active 124 / 114 40% 1 30.11.2026 -
Zavier Gozo Crystal Palace Active 101 / 93 40% 4 28.11.2026 -
Tomás Aranda Boca Juniors Active 112 / 133 40% 2 25.11.2026 -
Oumar Camara Vitoria Guimaraes Active 111 / 136 40% 1 23.11.2026 -
Lander Astiazarán Real Sociedad Active 96 / 104 40% 1 22.11.2026 -
Owen Wolff Austin FC Active 114 / 107 40% 3 10.11.2026 -
Jack Grieves Watford Active 88 / 112 40% 2 09.11.2026 -
Raymond Agyemang Aduana Stars Active 83 / 75 40% 2 08.11.2026 -
Darius Lane Brighton Active 89 / 90 40% 1 07.11.2026 -
Luther Ngcobo Ajax Cape Town Active 94 / 87 40% 1 05.11.2026 -
Wisdom Udom Bendel Insurance Active 100 / 99 40% 1 02.11.2026 -
Gladson Sulemana Liberty Professionals Active 97 / 116 40% 1 31.10.2026 -
Rio Morgan Legion Active 84 / 94 40% 1 30.10.2026 -
Noah Streit CF Montreal Active 120 / 99 40% 1 19.10.2026 -
Bradley Zwane SuperSport United Active 86 / 127 40% 1 18.10.2026 -
Vimal Yoganathan Barnsley Active 102 / 99 40% 1 17.10.2026 -
Noel Buck San Jose Earthquakes Active 123 / 107 40% 2 16.10.2026 -
Michael Quarcoo Berekum Chelsea Active 98 / 104 40% 1 12.10.2026 -
Cemran Dansin Orlando Pirates Active 112 / 132 40% 1 11.10.2026 -
Keyrol Figueroa Liverpool Active 93 / 92 40% 1 09.10.2026 -
Mauricio Amaro Atlanta United FC Active 128 / 127 40% 1 09.10.2026 -
Brooklyn Raines New England Revolution Active 111 / 124 40% 2 07.10.2026 -
Kai Andrews Coventry City Active 97 / 128 40% 1 05.10.2026 -
Shane Nti Brighton Active 80 / 100 40% 1 27.09.2026 -
Mfundo Vilakazi Kaizer Chiefs Active 102 / 120 40% 2 25.09.2026 -
Callum Olusesi Tottenham Active 104 / 110 40% 1 24.09.2026 -
Joel Ezra Enyimba Active 73 / 85 40% 1 22.09.2026 -
Emmanuel Akpan Bendel Insurance Active 93 / 76 40% 1 21.09.2026 -
Jamie Mullins Wycombe Wanderers Active 103 / 93 40% 1 18.09.2026 -
Sadiq Auwal Niger Tornadoes Active 83 / 113 40% 1 17.09.2026 -
Abubakar Garba Nasarawa United Active 73 / 108 40% 1 17.09.2026 -
Relebohile Mofokeng Orlando Pirates Active 102 / 125 40% 1 14.09.2026 -
Sunday Aniebet Enyimba Active 96 / 84 40% 1 10.09.2026 -
Bautista Carboni Defensores Unidos Active 116 / 117 40% 1 09.09.2026 -
Clinton Jephta Niger Tornadoes Active 91 / 84 40% 1 08.09.2026 -
Goodluck Anuba Ikorodu City Active 75 / 93 40% 1 08.09.2026 -
Alex Bangura Middlesbrough Active 111 / 116 40% 1 01.08.2026 -
Tim Iroegbunam Hull City Active 125 / 149 40% 1 01.08.2026 -